createdAt,value
2022-11-20T00:00:00.819Z,7.9
2022-11-20T00:01:00.346Z,7.9
2022-11-20T00:03:00.340Z,7.8
2022-11-20T00:04:00.324Z,7.9
2022-11-20T00:05:00.344Z,7.9
2022-11-20T00:06:00.914Z,7.9
2022-11-20T00:07:00.355Z,7.9
2022-11-20T00:08:00.382Z,7.9
2022-11-20T00:09:00.300Z,7.8
2022-11-20T00:10:00.309Z,7.8
2022-11-20T00:11:00.285Z,7.8
2022-11-20T00:12:00.541Z,7.8
2022-11-20T00:13:00.459Z,7.8
2022-11-20T00:14:00.395Z,7.8
2022-11-20T00:15:00.391Z,7.8
2022-11-20T00:16:00.412Z,7.7
2022-11-20T00:19:00.342Z,7.7
2022-11-20T00:20:00.472Z,7.7
2022-11-20T00:21:00.303Z,7.8
2022-11-20T00:22:00.411Z,7.7
2022-11-20T00:23:00.386Z,7.7
2022-11-20T00:24:00.470Z,7.7
2022-11-20T00:25:00.335Z,7.7
2022-11-20T00:26:00.401Z,7.7
2022-11-20T00:27:00.322Z,7.7
2022-11-20T00:28:00.436Z,7.7
2022-11-20T00:29:00.369Z,7.7
2022-11-20T00:30:00.479Z,7.7
2022-11-20T00:31:00.280Z,7.8
2022-11-20T00:33:00.331Z,7.8
2022-11-20T00:35:00.379Z,7.8
2022-11-20T00:36:00.549Z,7.9
2022-11-20T00:39:00.317Z,7.9
2022-11-20T00:40:00.420Z,7.9
2022-11-20T00:41:00.377Z,7.9
2022-11-20T00:42:00.512Z,7.9
2022-11-20T00:43:00.437Z,7.9
2022-11-20T00:44:00.506Z,7.9
2022-11-20T00:45:00.565Z,7.9
2022-11-20T00:46:00.371Z,7.9
2022-11-20T00:47:00.460Z,7.9
2022-11-20T00:48:00.510Z,7.9
2022-11-20T00:49:00.372Z,7.8
2022-11-20T00:51:00.459Z,7.8
2022-11-20T00:52:00.365Z,7.8
2022-11-20T00:53:00.328Z,7.8
2022-11-20T00:55:00.370Z,7.8
2022-11-20T00:57:00.351Z,7.7
2022-11-20T00:58:03.665Z,7.7
2022-11-20T00:59:00.393Z,7.7
2022-11-20T01:00:00.591Z,7.7
2022-11-20T01:01:00.443Z,7.6
2022-11-20T01:02:00.522Z,7.6
2022-11-20T01:03:00.313Z,7.6
2022-11-20T01:04:00.317Z,7.6
2022-11-20T01:05:00.560Z,7.6
2022-11-20T01:06:00.931Z,7.6
2022-11-20T01:07:00.701Z,7.6
2022-11-20T01:08:00.395Z,7.6
2022-11-20T01:09:00.342Z,7.6
2022-11-20T01:10:00.641Z,7.6
2022-11-20T01:11:00.364Z,7.7
2022-11-20T01:12:00.497Z,7.7
2022-11-20T01:13:00.413Z,7.7
2022-11-20T01:14:00.469Z,7.7
2022-11-20T01:15:00.396Z,7.7
2022-11-20T01:16:00.673Z,7.7
2022-11-20T01:17:00.332Z,7.7
2022-11-20T01:18:00.426Z,7.7
2022-11-20T01:19:00.369Z,7.7
2022-11-20T01:20:00.391Z,7.7
2022-11-20T01:21:00.319Z,7.7
2022-11-20T01:22:00.478Z,7.7
2022-11-20T01:23:00.522Z,7.7
2022-11-20T01:24:00.873Z,7.7
2022-11-20T01:25:00.587Z,7.7
2022-11-20T01:26:00.341Z,7.7
2022-11-20T01:27:00.324Z,7.7
2022-11-20T01:28:00.367Z,7.7
2022-11-20T01:29:00.309Z,7.6
2022-11-20T01:30:01.380Z,7.6
2022-11-20T01:31:00.381Z,7.6
2022-11-20T01:32:00.372Z,7.6
2022-11-20T01:33:00.420Z,7.7
2022-11-20T01:34:00.359Z,7.7
2022-11-20T01:35:00.363Z,7.7
2022-11-20T01:36:00.434Z,7.7
2022-11-20T01:37:00.332Z,7.7
2022-11-20T01:38:00.384Z,7.7
2022-11-20T01:39:00.386Z,7.6
2022-11-20T01:40:00.384Z,7.6
2022-11-20T01:41:00.341Z,7.6
2022-11-20T01:42:01.871Z,7.6
2022-11-20T01:43:00.326Z,7.6
2022-11-20T01:44:00.319Z,7.6
2022-11-20T01:45:00.313Z,7.6
2022-11-20T01:46:00.364Z,7.5
2022-11-20T01:47:00.312Z,7.5
2022-11-20T01:48:00.385Z,7.5
2022-11-20T01:49:00.285Z,7.5
2022-11-20T01:50:00.272Z,7.5
2022-11-20T01:51:00.309Z,7.5
2022-11-20T01:52:00.333Z,7.5
2022-11-20T01:53:00.288Z,7.5
2022-11-20T01:54:00.448Z,7.4
2022-11-20T01:55:00.279Z,7.4
2022-11-20T01:56:00.289Z,7.4
2022-11-20T01:57:00.315Z,7.4
2022-11-20T01:58:00.336Z,7.3
2022-11-20T01:59:00.288Z,7.3
2022-11-20T02:00:00.740Z,7.3
2022-11-20T02:01:00.520Z,7.3
2022-11-20T02:02:00.301Z,7.3
2022-11-20T02:03:00.340Z,7.3
2022-11-20T02:04:00.388Z,7.3
2022-11-20T02:05:00.314Z,7.3
2022-11-20T02:06:00.556Z,7.2
2022-11-20T02:07:00.469Z,7.2
2022-11-20T02:08:00.399Z,7.2
2022-11-20T02:09:00.416Z,7.2
2022-11-20T02:10:00.334Z,7.2
2022-11-20T02:11:00.373Z,7.2
2022-11-20T02:12:00.482Z,7.2
2022-11-20T02:13:00.310Z,7.2
2022-11-20T02:14:00.316Z,7.2
2022-11-20T02:15:00.320Z,7.2
2022-11-20T02:16:00.342Z,7.2
2022-11-20T02:17:00.475Z,7.2
2022-11-20T02:18:00.479Z,7.3
2022-11-20T02:19:00.309Z,7.3
2022-11-20T02:20:00.348Z,7.3
2022-11-20T02:21:00.333Z,7.3
2022-11-20T02:22:00.364Z,7.3
2022-11-20T02:23:00.319Z,7.3
2022-11-20T02:24:00.476Z,7.4
2022-11-20T02:25:00.316Z,7.4
2022-11-20T02:26:00.362Z,7.4
2022-11-20T02:27:00.292Z,7.4
2022-11-20T02:28:00.329Z,7.4
2022-11-20T02:29:00.291Z,7.4
2022-11-20T02:30:00.540Z,7.3
2022-11-20T02:31:00.329Z,7.3
2022-11-20T02:32:00.438Z,7.3
2022-11-20T02:33:00.422Z,7.3
2022-11-20T02:34:00.286Z,7.2
2022-11-20T02:35:00.395Z,7.2
2022-11-20T02:36:00.530Z,7.2
2022-11-20T02:37:00.317Z,7.2
2022-11-20T02:38:00.445Z,7.1
2022-11-20T02:39:00.349Z,7.1
2022-11-20T02:40:00.311Z,7.1
2022-11-20T02:41:00.334Z,7.1
2022-11-20T02:42:00.559Z,7.1
2022-11-20T02:43:00.329Z,7.1
2022-11-20T02:44:00.326Z,7.1
2022-11-20T02:45:00.342Z,7.1
2022-11-20T02:46:00.340Z,7.1
2022-11-20T02:47:00.536Z,7.1
2022-11-20T02:48:00.497Z,7.1
2022-11-20T02:49:00.335Z,7.1
2022-11-20T02:50:00.335Z,7.1
2022-11-20T02:51:00.355Z,7.1
2022-11-20T02:52:00.363Z,7.1
2022-11-20T02:53:00.310Z,7.0
2022-11-20T02:54:00.506Z,7.0
2022-11-20T02:55:00.338Z,7.0
2022-11-20T02:56:00.335Z,7.0
2022-11-20T02:57:00.322Z,7.0
2022-11-20T02:58:00.364Z,6.9
2022-11-20T02:59:00.394Z,7.0
2022-11-20T03:00:00.670Z,7.0
2022-11-20T03:01:00.414Z,7.0
2022-11-20T03:02:00.455Z,7.0
2022-11-20T03:03:00.417Z,7.0
2022-11-20T03:04:00.314Z,7.0
2022-11-20T03:05:00.340Z,7.0
2022-11-20T03:06:00.568Z,7.1
2022-11-20T03:07:00.379Z,7.1
2022-11-20T03:08:00.358Z,7.1
2022-11-20T03:09:00.340Z,7.0
2022-11-20T03:10:00.324Z,7.1
2022-11-20T03:11:00.350Z,7.1
2022-11-20T03:12:00.464Z,7.0
2022-11-20T03:13:00.317Z,7.0
2022-11-20T03:14:00.305Z,7.0
2022-11-20T03:15:00.346Z,7.0
2022-11-20T03:16:00.301Z,7.0
2022-11-20T03:17:00.593Z,7.0
2022-11-20T03:18:00.559Z,7.0
2022-11-20T03:19:00.347Z,6.9
2022-11-20T03:20:00.324Z,6.9
2022-11-20T03:21:00.312Z,6.9
2022-11-20T03:22:00.327Z,6.8
2022-11-20T03:23:00.359Z,6.8
2022-11-20T03:24:00.476Z,6.8
2022-11-20T03:25:00.393Z,6.8
2022-11-20T03:26:00.420Z,6.8
2022-11-20T03:27:00.370Z,6.8
2022-11-20T03:28:00.324Z,6.8
2022-11-20T03:29:00.420Z,6.8
2022-11-20T03:30:00.536Z,6.8
2022-11-20T03:31:00.289Z,6.9
2022-11-20T03:32:00.440Z,6.9
2022-11-20T03:33:00.314Z,6.8
2022-11-20T03:34:00.395Z,6.8
2022-11-20T03:35:00.317Z,6.8
2022-11-20T03:36:00.515Z,6.8
2022-11-20T03:37:00.327Z,6.8
2022-11-20T03:38:00.327Z,6.8
2022-11-20T03:39:00.305Z,6.8
2022-11-20T03:40:00.289Z,6.8
2022-11-20T03:41:00.350Z,6.8
2022-11-20T03:42:00.445Z,6.8
2022-11-20T03:43:00.346Z,6.8
2022-11-20T03:44:00.315Z,6.8
2022-11-20T03:45:00.287Z,6.8
2022-11-20T03:46:00.333Z,6.8
2022-11-20T03:47:00.354Z,6.8
2022-11-20T03:48:00.360Z,6.8
2022-11-20T03:49:00.281Z,6.8
2022-11-20T03:50:00.328Z,6.8
2022-11-20T03:51:00.330Z,6.8
2022-11-20T03:52:00.304Z,6.8
2022-11-20T03:53:00.298Z,6.8
2022-11-20T03:54:00.431Z,6.8
2022-11-20T03:55:00.305Z,6.8
2022-11-20T03:56:00.305Z,6.8
2022-11-20T03:57:00.330Z,6.8
2022-11-20T03:58:00.348Z,6.8
2022-11-20T03:59:00.321Z,6.8
2022-11-20T04:00:00.472Z,6.8
2022-11-20T04:01:00.385Z,6.8
2022-11-20T04:02:00.416Z,6.8
2022-11-20T04:03:00.355Z,6.8
2022-11-20T04:04:00.390Z,6.8
2022-11-20T04:05:00.320Z,6.8
2022-11-20T04:06:00.532Z,6.9
2022-11-20T04:07:00.458Z,6.9
2022-11-20T04:08:00.406Z,6.9
2022-11-20T04:09:00.359Z,7.2
2022-11-20T04:10:00.284Z,7.6
2022-11-20T04:11:00.326Z,8.1
2022-11-20T04:12:00.582Z,8.7
2022-11-20T04:13:00.337Z,9.4
2022-11-20T04:14:00.307Z,9.9
2022-11-20T04:15:00.286Z,10.5
2022-11-20T04:16:00.288Z,11.0
2022-11-20T04:17:00.512Z,11.5
2022-11-20T04:18:00.630Z,11.9
2022-11-20T04:19:00.290Z,12.4
2022-11-20T04:20:00.312Z,12.8
2022-11-20T04:21:00.328Z,13.2
2022-11-20T04:22:00.365Z,13.6
2022-11-20T04:23:00.302Z,14.0
2022-11-20T04:24:00.467Z,14.4
2022-11-20T04:25:00.313Z,14.9
2022-11-20T04:26:00.359Z,15.2
2022-11-20T04:27:00.325Z,15.5
2022-11-20T04:28:00.305Z,15.7
2022-11-20T04:29:00.331Z,16.0
2022-11-20T04:30:00.473Z,16.2
2022-11-20T04:31:00.332Z,16.3
2022-11-20T04:32:00.499Z,16.6
2022-11-20T04:33:00.569Z,16.9
2022-11-20T04:34:00.330Z,17.1
2022-11-20T04:35:00.321Z,17.4
2022-11-20T04:36:00.475Z,17.9
2022-11-20T04:37:00.415Z,18.3
2022-11-20T04:38:00.355Z,18.7
2022-11-20T04:39:00.337Z,19.1
2022-11-20T04:40:00.322Z,19.5
2022-11-20T04:41:00.371Z,19.1
2022-11-20T04:42:00.555Z,17.8
2022-11-20T04:43:00.304Z,16.3
2022-11-20T04:44:00.583Z,15.4
2022-11-20T04:45:00.314Z,14.6
2022-11-20T04:46:00.274Z,13.9
2022-11-20T04:47:00.341Z,13.3
2022-11-20T04:48:00.691Z,12.9
2022-11-20T04:49:00.355Z,12.5
2022-11-20T04:50:00.405Z,12.1
2022-11-20T04:51:00.271Z,11.7
2022-11-20T04:52:00.336Z,11.4
2022-11-20T04:53:00.379Z,11.1
2022-11-20T04:54:00.461Z,10.9
2022-11-20T04:55:00.303Z,10.7
2022-11-20T04:56:00.321Z,10.5
2022-11-20T04:57:00.316Z,10.4
2022-11-20T04:58:00.307Z,10.4
2022-11-20T04:59:00.329Z,11.1
2022-11-20T05:00:00.567Z,12.7
2022-11-20T05:01:00.297Z,14.8
2022-11-20T05:02:00.401Z,16.7
2022-11-20T05:03:00.254Z,18.0
2022-11-20T05:04:00.470Z,19.1
2022-11-20T05:05:00.293Z,20.1
2022-11-20T05:06:00.456Z,21.0
2022-11-20T05:07:00.413Z,21.8
2022-11-20T05:08:00.329Z,22.7
2022-11-20T05:09:00.257Z,23.4
2022-11-20T05:10:00.282Z,23.9
2022-11-20T05:11:00.265Z,24.5
2022-11-20T05:12:00.468Z,25.0
2022-11-20T05:13:00.266Z,25.4
2022-11-20T05:14:00.318Z,25.7
2022-11-20T05:15:00.264Z,26.1
2022-11-20T05:16:00.305Z,26.6
2022-11-20T05:17:00.257Z,26.9
2022-11-20T05:18:00.634Z,27.2
2022-11-20T05:19:00.311Z,27.4
2022-11-20T05:20:00.428Z,27.7
2022-11-20T05:21:00.356Z,27.6
2022-11-20T05:22:00.292Z,27.7
2022-11-20T05:23:00.261Z,27.8
2022-11-20T05:24:00.393Z,28.0
2022-11-20T05:25:00.300Z,28.2
2022-11-20T05:26:00.315Z,28.4
2022-11-20T05:27:00.266Z,28.3
2022-11-20T05:28:00.413Z,28.4
2022-11-20T05:29:00.296Z,28.7
2022-11-20T05:30:00.506Z,29.1
2022-11-20T05:31:00.245Z,29.5
2022-11-20T05:32:00.281Z,29.8
2022-11-20T05:33:00.302Z,30.1
2022-11-20T05:34:00.285Z,30.3
2022-11-20T05:35:00.302Z,30.5
2022-11-20T05:36:00.572Z,30.9
2022-11-20T05:37:00.252Z,31.2
2022-11-20T05:38:00.251Z,31.7
2022-11-20T05:39:01.888Z,32.0
2022-11-20T05:40:00.305Z,32.4
2022-11-20T05:41:00.278Z,32.7
2022-11-20T05:42:00.511Z,33.0
2022-11-20T05:43:00.307Z,33.3
2022-11-20T05:44:00.361Z,33.4
2022-11-20T05:45:00.276Z,33.6
2022-11-20T05:46:00.240Z,33.9
2022-11-20T05:47:00.380Z,34.2
2022-11-20T05:48:00.547Z,34.2
2022-11-20T05:49:00.292Z,34.2
2022-11-20T05:50:00.287Z,34.3
2022-11-20T05:51:00.255Z,34.4
2022-11-20T05:52:00.553Z,34.5
2022-11-20T05:53:00.330Z,34.6
2022-11-20T05:54:00.390Z,34.4
2022-11-20T05:55:00.297Z,34.1
2022-11-20T05:56:00.331Z,34.1
2022-11-20T05:57:00.313Z,34.2
2022-11-20T05:58:00.296Z,34.2
2022-11-20T05:59:00.421Z,34.1
2022-11-20T06:00:00.577Z,33.9
2022-11-20T06:01:00.323Z,33.8
2022-11-20T06:02:00.367Z,34.0
2022-11-20T06:03:00.437Z,34.2
2022-11-20T06:04:00.319Z,34.5
2022-11-20T06:05:00.325Z,34.8
2022-11-20T06:06:00.511Z,35.0
2022-11-20T06:07:00.596Z,35.1
2022-11-20T06:08:00.398Z,35.2
2022-11-20T06:09:00.296Z,35.3
2022-11-20T06:10:00.301Z,35.5
2022-11-20T06:11:00.317Z,35.6
2022-11-20T06:12:00.455Z,34.5
2022-11-20T06:13:00.354Z,31.6
2022-11-20T06:14:00.328Z,28.6
2022-11-20T06:15:00.342Z,26.7
2022-11-20T06:16:00.378Z,25.2
2022-11-20T06:17:00.394Z,24.0
2022-11-20T06:18:00.573Z,22.9
2022-11-20T06:19:00.413Z,22.0
2022-11-20T06:20:00.327Z,21.2
2022-11-20T06:21:00.340Z,20.5
2022-11-20T06:22:00.335Z,19.9
2022-11-20T06:23:00.503Z,19.3
2022-11-20T06:24:00.423Z,18.8
2022-11-20T06:25:00.323Z,18.4
2022-11-20T06:26:00.350Z,18.0
2022-11-20T06:27:00.393Z,17.6
2022-11-20T06:28:00.363Z,17.3
2022-11-20T06:29:00.347Z,17.0
2022-11-20T06:30:00.503Z,16.8
2022-11-20T06:31:00.321Z,16.7
2022-11-20T06:32:00.326Z,16.5
2022-11-20T06:33:00.335Z,16.4
2022-11-20T06:34:00.320Z,16.2
2022-11-20T06:35:00.321Z,16.2
2022-11-20T06:36:03.562Z,16.1
2022-11-20T06:37:00.357Z,16.0
2022-11-20T06:38:00.479Z,15.9
2022-11-20T06:39:00.471Z,15.8
2022-11-20T06:40:00.338Z,15.7
2022-11-20T06:41:00.335Z,15.7
2022-11-20T06:42:00.468Z,15.6
2022-11-20T06:43:00.329Z,15.6
2022-11-20T06:44:00.391Z,15.5
2022-11-20T06:45:00.369Z,15.4
2022-11-20T06:46:00.312Z,15.2
2022-11-20T06:47:00.361Z,15.1
2022-11-20T06:48:00.684Z,15.1
2022-11-20T06:49:00.338Z,15.0
2022-11-20T06:50:00.378Z,15.0
2022-11-20T06:51:00.336Z,15.1
2022-11-20T06:52:00.376Z,15.1
2022-11-20T06:53:00.321Z,15.1
2022-11-20T06:54:00.635Z,15.1
2022-11-20T06:55:00.360Z,15.1
2022-11-20T06:56:00.335Z,15.1
2022-11-20T06:57:00.290Z,15.1
2022-11-20T06:58:00.355Z,15.1
2022-11-20T06:59:00.336Z,15.1
2022-11-20T07:00:00.628Z,15.1
2022-11-20T07:01:00.605Z,15.0
2022-11-20T07:02:00.609Z,14.9
2022-11-20T07:03:00.681Z,14.9
2022-11-20T07:04:00.628Z,14.9
2022-11-20T07:05:00.571Z,14.7
2022-11-20T07:06:00.521Z,14.5
2022-11-20T07:07:00.426Z,14.5
2022-11-20T07:08:00.344Z,14.5
2022-11-20T07:09:00.491Z,14.5
2022-11-20T07:10:00.403Z,14.4
2022-11-20T07:11:00.555Z,14.4
2022-11-20T07:12:00.770Z,14.3
2022-11-20T07:13:00.654Z,14.3
2022-11-20T07:14:00.575Z,14.3
2022-11-20T07:15:00.630Z,14.3
2022-11-20T07:16:00.594Z,14.3
2022-11-20T07:17:00.638Z,14.2
2022-11-20T07:18:00.698Z,14.2
2022-11-20T07:19:00.644Z,14.2
2022-11-20T07:20:00.399Z,14.2
2022-11-20T07:21:00.332Z,14.1
2022-11-20T07:22:00.328Z,14.1
2022-11-20T07:23:00.313Z,14.0
2022-11-20T07:24:00.685Z,14.0
2022-11-20T07:25:00.346Z,14.1
2022-11-20T07:26:00.309Z,14.1
2022-11-20T07:27:00.352Z,14.1
2022-11-20T07:28:00.333Z,14.0
2022-11-20T07:29:00.379Z,14.0
2022-11-20T07:30:00.575Z,14.0
2022-11-20T07:31:00.465Z,14.0
2022-11-20T07:32:00.385Z,13.9
2022-11-20T07:33:00.336Z,13.9
2022-11-20T07:34:00.288Z,13.8
2022-11-20T07:35:00.369Z,13.9
2022-11-20T07:36:00.546Z,13.9
2022-11-20T07:37:00.315Z,13.9
2022-11-20T07:38:00.367Z,13.9
2022-11-20T07:39:00.493Z,13.9
2022-11-20T07:40:00.455Z,13.9
2022-11-20T07:41:00.296Z,14.0
2022-11-20T07:42:00.513Z,14.0
2022-11-20T07:43:00.417Z,13.9
2022-11-20T07:44:00.389Z,13.9
2022-11-20T07:45:00.339Z,13.9
2022-11-20T07:46:00.477Z,13.9
2022-11-20T07:47:00.380Z,13.9
2022-11-20T07:48:00.539Z,13.9
2022-11-20T07:49:00.521Z,13.9
2022-11-20T07:50:00.310Z,13.9
2022-11-20T07:51:00.303Z,13.9
2022-11-20T07:52:04.352Z,13.9
2022-11-20T07:53:00.309Z,13.8
2022-11-20T07:54:00.539Z,13.8
2022-11-20T07:55:00.467Z,13.9
2022-11-20T07:56:00.384Z,13.9
2022-11-20T07:57:00.348Z,13.9
2022-11-20T07:58:00.359Z,13.9
2022-11-20T07:59:00.363Z,13.9
2022-11-20T08:00:00.517Z,13.9
2022-11-20T08:01:00.702Z,14.0
2022-11-20T08:02:00.429Z,14.0
2022-11-20T08:03:00.316Z,14.0
2022-11-20T08:04:00.335Z,14.0
2022-11-20T08:05:00.326Z,14.0
2022-11-20T08:06:00.480Z,14.0
2022-11-20T08:07:00.393Z,14.1
2022-11-20T08:08:00.370Z,14.1
2022-11-20T08:09:00.754Z,14.2
2022-11-20T08:10:00.916Z,14.3
2022-11-20T08:11:00.311Z,14.4
2022-11-20T08:12:00.418Z,14.5
2022-11-20T08:13:00.348Z,14.6
2022-11-20T08:14:00.305Z,14.7
2022-11-20T08:15:00.290Z,16.4
2022-11-20T08:16:00.314Z,20.4
2022-11-20T08:17:00.340Z,23.7
2022-11-20T08:18:28.771Z,25.9
2022-11-20T08:19:00.317Z,27.5
2022-11-20T08:20:00.354Z,28.5
2022-11-20T08:21:00.354Z,29.3
2022-11-20T08:22:00.391Z,29.9
2022-11-20T08:23:00.349Z,30.5
2022-11-20T08:24:00.449Z,31.3
2022-11-20T08:25:00.479Z,32.2
2022-11-20T08:26:00.318Z,33.0
2022-11-20T08:27:00.340Z,33.3
2022-11-20T08:28:01.352Z,33.9
2022-11-20T08:29:00.323Z,34.3
2022-11-20T08:30:00.420Z,35.0
2022-11-20T08:31:00.374Z,35.6
2022-11-20T08:32:00.362Z,35.9
2022-11-20T08:33:00.367Z,36.2
2022-11-20T08:34:00.334Z,36.4
2022-11-20T08:35:00.352Z,36.6
2022-11-20T08:36:00.548Z,36.4
2022-11-20T08:37:00.457Z,36.3
2022-11-20T08:38:00.312Z,35.9
2022-11-20T08:39:00.343Z,35.5
2022-11-20T08:40:00.518Z,35.2
2022-11-20T08:41:00.352Z,34.9
2022-11-20T08:42:00.523Z,35.0
2022-11-20T08:43:00.350Z,35.1
2022-11-20T08:44:00.337Z,35.1
2022-11-20T08:45:00.406Z,35.3
2022-11-20T08:46:00.337Z,35.6
2022-11-20T08:47:00.361Z,35.4
2022-11-20T08:48:00.656Z,35.0
2022-11-20T08:49:00.604Z,34.5
2022-11-20T08:50:00.532Z,34.0
2022-11-20T08:51:00.566Z,33.5
2022-11-20T08:52:00.452Z,33.3
2022-11-20T08:53:00.576Z,33.5
2022-11-20T08:54:00.711Z,34.0
2022-11-20T08:55:00.725Z,34.7
2022-11-20T08:56:00.340Z,35.2
2022-11-20T08:57:00.398Z,35.4
2022-11-20T08:58:00.378Z,35.0
2022-11-20T08:59:26.941Z,34.8
2022-11-20T09:00:07.161Z,35.0
2022-11-20T09:01:00.366Z,35.4
2022-11-20T09:02:00.397Z,35.8
2022-11-20T09:03:00.408Z,35.7
2022-11-20T09:04:00.351Z,35.3
2022-11-20T09:05:00.404Z,35.2
2022-11-20T09:06:00.500Z,35.5
2022-11-20T09:07:00.422Z,35.4
2022-11-20T09:08:00.358Z,35.1
2022-11-20T09:09:06.100Z,34.8
2022-11-20T09:10:22.621Z,35.0
2022-11-20T09:11:00.367Z,34.9
2022-11-20T09:12:00.463Z,35.2
2022-11-20T09:13:00.424Z,35.5
2022-11-20T09:14:00.457Z,35.4
2022-11-20T09:15:00.369Z,35.0
2022-11-20T09:16:00.440Z,35.2
2022-11-20T09:17:00.370Z,35.6
2022-11-20T09:18:00.455Z,35.4
2022-11-20T09:19:33.719Z,35.1
2022-11-20T09:20:00.296Z,34.3
2022-11-20T09:21:00.571Z,34.2
2022-11-20T09:22:00.310Z,34.5
2022-11-20T09:23:00.359Z,34.7
2022-11-20T09:24:00.540Z,35.0
2022-11-20T09:25:00.343Z,34.7
2022-11-20T09:26:00.643Z,34.5
2022-11-20T09:27:00.482Z,34.5
2022-11-20T09:28:00.373Z,34.8
2022-11-20T09:29:00.408Z,34.8
2022-11-20T09:30:00.408Z,34.8
2022-11-20T09:31:00.474Z,35.1
2022-11-20T09:32:00.382Z,35.4
2022-11-20T09:33:00.280Z,35.4
2022-11-20T09:34:00.461Z,35.2
2022-11-20T09:36:00.590Z,35.2
2022-11-20T09:37:03.133Z,35.3
2022-11-20T09:38:00.508Z,35.5
2022-11-20T09:39:00.302Z,35.4
2022-11-20T09:40:00.313Z,35.2
2022-11-20T09:41:00.336Z,35.1
2022-11-20T09:42:00.612Z,35.0
2022-11-20T09:43:00.278Z,34.7
2022-11-20T09:44:00.350Z,34.8
2022-11-20T09:45:00.305Z,34.2
2022-11-20T09:46:00.272Z,33.6
2022-11-20T09:47:00.239Z,33.3
2022-11-20T09:48:00.629Z,33.2
2022-11-20T09:49:00.252Z,33.2
2022-11-20T09:50:00.342Z,33.1
2022-11-20T09:51:00.273Z,33.1
2022-11-20T09:52:00.301Z,32.9
2022-11-20T09:53:00.285Z,33.1
2022-11-20T09:54:00.653Z,32.8
2022-11-20T09:55:00.275Z,33.0
2022-11-20T09:56:00.286Z,32.9
2022-11-20T09:57:00.262Z,32.8
2022-11-20T09:58:00.501Z,32.7
2022-11-20T09:59:00.313Z,32.4
2022-11-20T10:00:00.512Z,32.0
2022-11-20T10:01:00.320Z,32.1
2022-11-20T10:02:00.282Z,32.2
2022-11-20T10:03:00.281Z,32.2
2022-11-20T10:04:00.298Z,32.1
2022-11-20T10:05:00.348Z,31.8
2022-11-20T10:06:00.468Z,31.8
2022-11-20T10:07:30.298Z,32.0
2022-11-20T10:08:00.355Z,32.1
2022-11-20T10:09:00.322Z,32.6
2022-11-20T10:10:00.410Z,32.8
2022-11-20T10:11:00.638Z,32.3
2022-11-20T10:12:00.487Z,32.0
2022-11-20T10:13:00.383Z,31.8
2022-11-20T10:14:00.341Z,32.0
2022-11-20T10:15:00.324Z,32.3
2022-11-20T10:16:00.351Z,32.0
2022-11-20T10:17:00.316Z,31.9
2022-11-20T10:18:00.681Z,31.8
2022-11-20T10:19:00.334Z,32.1
2022-11-20T10:20:00.320Z,32.3
2022-11-20T10:21:00.384Z,32.5
2022-11-20T10:22:00.312Z,32.6
2022-11-20T10:23:00.364Z,32.7
2022-11-20T10:24:00.665Z,32.8
2022-11-20T10:25:00.343Z,33.1
2022-11-20T10:26:00.326Z,33.7
2022-11-20T10:27:00.363Z,34.1
2022-11-20T10:28:00.446Z,34.4
2022-11-20T10:29:03.474Z,34.5
2022-11-20T10:30:00.375Z,34.4
2022-11-20T10:31:00.356Z,34.0
2022-11-20T10:32:00.318Z,33.9
2022-11-20T10:33:00.357Z,33.6
2022-11-20T10:34:12.399Z,33.0
2022-11-20T10:35:00.371Z,31.3
2022-11-20T10:36:00.463Z,30.3
2022-11-20T10:37:00.393Z,30.8
2022-11-20T10:38:00.329Z,31.5
2022-11-20T10:39:00.291Z,31.8
2022-11-20T10:40:00.310Z,32.1
2022-11-20T10:41:00.318Z,32.3
2022-11-20T10:42:00.483Z,32.0
2022-11-20T10:43:00.382Z,31.8
2022-11-20T10:44:00.383Z,32.0
2022-11-20T10:45:04.153Z,31.7
2022-11-20T10:46:00.326Z,31.1
2022-11-20T10:47:00.295Z,30.6
2022-11-20T10:48:00.555Z,30.6
2022-11-20T10:49:00.327Z,30.1
2022-11-20T10:50:00.365Z,29.3
2022-11-20T10:51:00.335Z,29.2
2022-11-20T10:52:00.370Z,29.7
2022-11-20T10:53:00.349Z,29.9
2022-11-20T10:54:00.441Z,30.2
2022-11-20T10:55:00.291Z,30.6
2022-11-20T10:56:00.324Z,31.1
2022-11-20T10:57:00.303Z,31.3
2022-11-20T10:58:00.318Z,31.6
2022-11-20T10:59:00.428Z,31.9
2022-11-20T11:00:00.493Z,32.2
2022-11-20T11:01:00.314Z,32.4
2022-11-20T11:02:03.223Z,32.5
2022-11-20T11:03:00.338Z,32.7
2022-11-20T11:04:00.330Z,32.5
2022-11-20T11:05:00.329Z,32.4
2022-11-20T11:06:00.516Z,32.6
2022-11-20T11:07:00.351Z,32.7
2022-11-20T11:08:00.366Z,32.8
2022-11-20T11:09:00.320Z,32.9
2022-11-20T11:10:00.340Z,32.9
2022-11-20T11:11:00.401Z,32.8
2022-11-20T11:12:05.775Z,32.7
2022-11-20T11:13:00.345Z,32.6
2022-11-20T11:14:00.463Z,32.4
2022-11-20T11:15:00.376Z,32.2
2022-11-20T11:16:00.403Z,32.1
2022-11-20T11:17:00.381Z,32.1
2022-11-20T11:18:00.815Z,32.1
2022-11-20T11:19:00.522Z,31.3
2022-11-20T11:20:00.367Z,29.5
2022-11-20T11:21:00.396Z,27.4
2022-11-20T11:22:00.434Z,25.7
2022-11-20T11:23:00.479Z,24.6
2022-11-20T11:24:19.575Z,23.7
2022-11-20T11:25:00.349Z,22.8
2022-11-20T11:26:00.348Z,22.2
2022-11-20T11:27:00.358Z,21.8
2022-11-20T11:28:00.360Z,21.3
2022-11-20T11:29:00.564Z,20.9
2022-11-20T11:30:00.419Z,20.5
2022-11-20T11:31:00.321Z,20.2
2022-11-20T11:32:00.336Z,20.0
2022-11-20T11:33:00.387Z,19.8
2022-11-20T11:34:00.375Z,19.6
2022-11-20T11:35:00.337Z,19.5
2022-11-20T11:36:00.533Z,19.3
2022-11-20T11:37:00.334Z,19.2
2022-11-20T11:38:00.352Z,19.0
2022-11-20T11:39:00.342Z,18.9
2022-11-20T11:40:22.726Z,18.8
2022-11-20T11:41:00.350Z,18.7
2022-11-20T11:42:00.503Z,18.5
2022-11-20T11:43:00.368Z,18.5
2022-11-20T11:44:00.620Z,18.3
2022-11-20T11:45:00.353Z,18.3
2022-11-20T11:46:00.323Z,18.2
2022-11-20T11:47:00.388Z,18.1
2022-11-20T11:48:00.470Z,18.1
2022-11-20T11:49:00.317Z,18.0
2022-11-20T11:50:00.377Z,18.0
2022-11-20T11:51:00.326Z,18.0
2022-11-20T11:52:00.416Z,17.9
2022-11-20T11:53:00.637Z,17.9
2022-11-20T11:54:00.719Z,17.8
2022-11-20T11:55:00.496Z,17.8
2022-11-20T11:56:00.641Z,17.7
2022-11-20T11:57:00.525Z,17.6
2022-11-20T11:58:00.620Z,17.6
2022-11-20T11:59:00.692Z,17.5
2022-11-20T12:00:00.816Z,17.4
2022-11-20T12:01:00.669Z,17.4
2022-11-20T12:02:00.505Z,17.3
2022-11-20T12:03:00.505Z,17.3
2022-11-20T12:04:00.361Z,17.2
2022-11-20T12:05:00.520Z,17.1
2022-11-20T12:06:00.433Z,17.1
2022-11-20T12:07:00.491Z,17.1
2022-11-20T12:08:00.429Z,17.1
2022-11-20T12:09:00.368Z,17.0
2022-11-20T12:10:00.326Z,17.0
2022-11-20T12:11:00.401Z,17.0
2022-11-20T12:12:00.535Z,17.0
2022-11-20T12:13:00.346Z,17.0
2022-11-20T12:14:00.349Z,17.0
2022-11-20T12:15:00.576Z,17.0
2022-11-20T12:16:00.365Z,17.0
2022-11-20T12:17:00.297Z,17.0
2022-11-20T12:18:00.603Z,17.0
2022-11-20T12:19:00.388Z,16.9
2022-11-20T12:20:00.335Z,16.8
2022-11-20T12:21:00.579Z,16.8
2022-11-20T12:22:03.362Z,16.8
2022-11-20T12:23:00.647Z,16.8
2022-11-20T12:24:00.915Z,16.8
2022-11-20T12:25:00.445Z,16.8
2022-11-20T12:26:00.525Z,16.8
2022-11-20T12:27:00.554Z,16.7
2022-11-20T12:28:00.721Z,16.7
2022-11-20T12:29:00.589Z,16.6
2022-11-20T12:30:00.888Z,16.6
2022-11-20T12:31:00.599Z,16.6
2022-11-20T12:32:00.545Z,16.5
2022-11-20T12:33:00.621Z,16.5
2022-11-20T12:34:00.481Z,16.4
2022-11-20T12:35:00.534Z,16.4
2022-11-20T12:36:00.551Z,16.4
2022-11-20T12:37:00.507Z,16.4
2022-11-20T12:38:00.677Z,16.3
2022-11-20T12:39:00.397Z,16.2
2022-11-20T12:40:00.544Z,16.2
2022-11-20T12:41:00.481Z,16.2
2022-11-20T12:42:00.702Z,16.1
2022-11-20T12:43:00.678Z,16.1
2022-11-20T12:44:00.459Z,16.1
2022-11-20T12:45:00.745Z,16.0
2022-11-20T12:46:00.465Z,16.0
2022-11-20T12:47:00.384Z,16.0
2022-11-20T12:48:00.567Z,15.9
2022-11-20T12:49:00.494Z,16.1
2022-11-20T12:50:00.477Z,16.6
2022-11-20T12:51:14.650Z,17.4
2022-11-20T12:52:00.499Z,18.1
2022-11-20T12:53:00.445Z,18.6
2022-11-20T12:54:00.746Z,18.7
2022-11-20T12:55:00.496Z,18.7
2022-11-20T12:56:00.736Z,18.6
2022-11-20T12:57:03.811Z,18.7
2022-11-20T12:58:00.516Z,18.7
2022-11-20T12:59:00.591Z,18.6
2022-11-20T13:00:00.650Z,18.6
2022-11-20T13:01:00.776Z,18.6
2022-11-20T13:02:00.399Z,18.5
2022-11-20T13:03:00.357Z,18.4
2022-11-20T13:04:00.484Z,18.5
2022-11-20T13:05:00.435Z,18.6
2022-11-20T13:06:00.650Z,18.8
2022-11-20T13:07:00.498Z,19.0
2022-11-20T13:08:00.660Z,19.1
2022-11-20T13:09:00.478Z,19.2
2022-11-20T13:10:00.476Z,19.3
2022-11-20T13:11:00.398Z,19.3
2022-11-20T13:12:00.808Z,19.0
2022-11-20T13:13:00.509Z,18.4
2022-11-20T13:14:00.358Z,17.7
2022-11-20T13:15:00.257Z,17.1
2022-11-20T13:16:00.426Z,16.8
2022-11-20T13:17:05.737Z,16.5
2022-11-20T13:18:00.699Z,16.2
2022-11-20T13:19:00.525Z,16.0
2022-11-20T13:20:00.323Z,15.8
2022-11-20T13:21:00.406Z,15.6
2022-11-20T13:22:00.291Z,15.4
2022-11-20T13:23:00.337Z,15.3
2022-11-20T13:24:00.476Z,15.1
2022-11-20T13:25:00.582Z,15.0
2022-11-20T13:26:00.302Z,14.9
2022-11-20T13:27:00.464Z,14.8
2022-11-20T13:28:00.399Z,14.7
2022-11-20T13:29:00.455Z,14.6
2022-11-20T13:30:00.590Z,14.5
2022-11-20T13:31:00.488Z,14.4
2022-11-20T13:32:04.889Z,14.4
2022-11-20T13:33:00.423Z,14.3
2022-11-20T13:34:00.625Z,14.3
2022-11-20T13:35:00.477Z,14.2
2022-11-20T13:36:01.074Z,14.1
2022-11-20T13:37:00.346Z,14.1